Aviation Digital Data Service (ADDS)

Output produced by METARs form (2206 UTC 18 January 2017)
found at http://aviationweather.gov/adds/metars/
 
KDET 181723Z 1818/1918 24008KT P6SM OVC010 
     FM190600 21005KT 5SM BR BKN008 
     FM190900 21004KT 2SM BR BKN004 
     FM191500 20006KT 4SM BR BKN007